sensor_id;sensor_type;location;lat;lon;timestamp;pressure;altitude;pressure_sealevel;temperature;humidity
55550;BME280;41397;49.972;18.944;2023-10-19T00:02:33;101238.14;;;9.90;63.11
55550;BME280;41397;49.972;18.944;2023-10-19T00:05:35;101229.98;;;9.77;63.50
55550;BME280;41397;49.972;18.944;2023-10-19T00:08:37;101222.34;;;9.82;63.55
55550;BME280;41397;49.972;18.944;2023-10-19T00:11:44;101224.52;;;9.77;63.87
55550;BME280;41397;49.972;18.944;2023-10-19T00:14:48;101227.47;;;9.74;63.96
55550;BME280;41397;49.972;18.944;2023-10-19T00:17:50;101219.70;;;9.68;64.14
55550;BME280;41397;49.972;18.944;2023-10-19T00:20:55;101209.63;;;9.68;63.83
55550;BME280;41397;49.972;18.944;2023-10-19T00:24:10;101206.91;;;9.68;63.90
55550;BME280;41397;49.972;18.944;2023-10-19T00:27:11;101196.66;;;9.72;63.84
55550;BME280;41397;49.972;18.944;2023-10-19T00:30:20;101191.19;;;9.72;63.53
55550;BME280;41397;49.972;18.944;2023-10-19T00:33:29;101181.59;;;9.66;63.76
55550;BME280;41397;49.972;18.944;2023-10-19T00:36:33;101176.86;;;9.68;63.67
55550;BME280;41397;49.972;18.944;2023-10-19T00:39:35;101167.48;;;9.72;63.69
55550;BME280;41397;49.972;18.944;2023-10-19T00:42:50;101168.12;;;9.76;63.27
55550;BME280;41397;49.972;18.944;2023-10-19T00:45:56;101166.39;;;9.75;62.92
55550;BME280;41397;49.972;18.944;2023-10-19T00:49:01;101166.94;;;9.67;62.82
55550;BME280;41397;49.972;18.944;2023-10-19T00:52:07;101160.47;;;9.68;62.77
55550;BME280;41397;49.972;18.944;2023-10-19T00:55:21;101160.93;;;9.62;62.56
55550;BME280;41397;49.972;18.944;2023-10-19T00:58:26;101147.27;;;9.62;62.42
55550;BME280;41397;49.972;18.944;2023-10-19T01:01:32;101152.97;;;9.59;62.46
55550;BME280;41397;49.972;18.944;2023-10-19T01:04:43;101138.44;;;9.46;62.76
55550;BME280;41397;49.972;18.944;2023-10-19T01:07:47;101144.89;;;9.45;63.02
55550;BME280;41397;49.972;18.944;2023-10-19T01:10:59;101126.10;;;9.40;62.89
55550;BME280;41397;49.972;18.944;2023-10-19T01:17:16;101121.64;;;9.26;63.44
55550;BME280;41397;49.972;18.944;2023-10-19T01:20:21;101109.96;;;9.11;63.85
55550;BME280;41397;49.972;18.944;2023-10-19T01:23:36;101096.43;;;9.23;63.27
55550;BME280;41397;49.972;18.944;2023-10-19T01:26:40;101086.06;;;9.28;63.14
55550;BME280;41397;49.972;18.944;2023-10-19T01:29:41;101093.68;;;9.36;62.87
55550;BME280;41397;49.972;18.944;2023-10-19T01:32:42;101087.12;;;9.38;62.70
55550;BME280;41397;49.972;18.944;2023-10-19T01:35:44;101078.73;;;9.41;62.47
55550;BME280;41397;49.972;18.944;2023-10-19T01:38:59;101066.92;;;9.41;62.24
55550;BME280;41397;49.972;18.944;2023-10-19T01:42:17;101074.23;;;9.40;62.13
55550;BME280;41397;49.972;18.944;2023-10-19T01:45:19;101065.64;;;9.33;62.33
55550;BME280;41397;49.972;18.944;2023-10-19T01:48:20;101061.59;;;9.26;62.51
55550;BME280;41397;49.972;18.944;2023-10-19T01:51:33;101056.78;;;9.30;62.19
55550;BME280;41397;49.972;18.944;2023-10-19T01:54:39;101042.16;;;9.31;62.20
55550;BME280;41397;49.972;18.944;2023-10-19T01:57:44;101045.22;;;9.26;62.26
55550;BME280;41397;49.972;18.944;2023-10-19T02:00:45;101033.89;;;9.20;62.59
55550;BME280;41397;49.972;18.944;2023-10-19T02:03:48;101039.25;;;9.08;62.72
55550;BME280;41397;49.972;18.944;2023-10-19T02:06:56;101024.61;;;8.97;63.03
55550;BME280;41397;49.972;18.944;2023-10-19T02:10:03;101034.21;;;9.02;63.31
55550;BME280;41397;49.972;18.944;2023-10-19T02:13:11;101031.48;;;9.02;63.43
55550;BME280;41397;49.972;18.944;2023-10-19T02:16:20;101024.73;;;8.95;63.53
55550;BME280;41397;49.972;18.944;2023-10-19T02:19:27;101022.43;;;9.02;63.56
55550;BME280;41397;49.972;18.944;2023-10-19T02:22:29;101015.14;;;8.89;64.06
55550;BME280;41397;49.972;18.944;2023-10-19T02:25:30;101019.91;;;8.86;63.93
55550;BME280;41397;49.972;18.944;2023-10-19T02:28:40;101013.27;;;8.77;64.24
55550;BME280;41397;49.972;18.944;2023-10-19T02:31:45;100999.86;;;8.74;64.40
55550;BME280;41397;49.972;18.944;2023-10-19T02:34:49;100982.50;;;8.75;64.46
55550;BME280;41397;49.972;18.944;2023-10-19T02:37:50;100989.38;;;8.81;64.38
55550;BME280;41397;49.972;18.944;2023-10-19T02:40:51;100976.72;;;8.80;64.61
55550;BME280;41397;49.972;18.944;2023-10-19T02:43:53;100970.09;;;8.84;64.54
55550;BME280;41397;49.972;18.944;2023-10-19T02:47:06;100955.88;;;8.92;64.07
55550;BME280;41397;49.972;18.944;2023-10-19T02:50:10;100953.81;;;8.95;63.86
55550;BME280;41397;49.972;18.944;2023-10-19T02:53:22;100957.41;;;8.96;64.00
55550;BME280;41397;49.972;18.944;2023-10-19T02:56:25;100951.31;;;8.92;63.80
55550;BME280;41397;49.972;18.944;2023-10-19T02:59:30;100942.78;;;8.97;63.68
55550;BME280;41397;49.972;18.944;2023-10-19T03:02:33;100935.13;;;9.02;63.74
55550;BME280;41397;49.972;18.944;2023-10-19T03:05:37;100937.01;;;9.01;63.68
55550;BME280;41397;49.972;18.944;2023-10-19T03:08:42;100938.73;;;9.02;63.48
55550;BME280;41397;49.972;18.944;2023-10-19T03:11:48;100934.14;;;9.03;63.31
55550;BME280;41397;49.972;18.944;2023-10-19T03:14:55;100923.59;;;8.98;63.28
55550;BME280;41397;49.972;18.944;2023-10-19T03:17:56;100905.59;;;8.96;63.43
55550;BME280;41397;49.972;18.944;2023-10-19T03:20:58;100908.24;;;8.84;63.99
55550;BME280;41397;49.972;18.944;2023-10-19T03:23:59;100897.56;;;8.69;64.53
55550;BME280;41397;49.972;18.944;2023-10-19T03:27:15;100894.60;;;8.72;64.57
55550;BME280;41397;49.972;18.944;2023-10-19T03:30:24;100897.56;;;8.81;64.49
55550;BME280;41397;49.972;18.944;2023-10-19T03:33:26;100897.32;;;8.84;64.50
55550;BME280;41397;49.972;18.944;2023-10-19T03:36:29;100894.36;;;8.87;64.30
55550;BME280;41397;49.972;18.944;2023-10-19T03:39:33;100889.78;;;8.88;64.64
55550;BME280;41397;49.972;18.944;2023-10-19T03:42:42;100902.78;;;8.84;64.85
55550;BME280;41397;49.972;18.944;2023-10-19T03:45:47;100904.28;;;8.88;64.75
55550;BME280;41397;49.972;18.944;2023-10-19T03:48:55;100895.02;;;8.78;65.37
55550;BME280;41397;49.972;18.944;2023-10-19T03:52:00;100893.29;;;8.77;65.31
55550;BME280;41397;49.972;18.944;2023-10-19T03:55:15;100883.24;;;8.78;65.71
55550;BME280;41397;49.972;18.944;2023-10-19T03:58:20;100892.52;;;8.75;65.63
55550;BME280;41397;49.972;18.944;2023-10-19T04:01:27;100886.98;;;8.77;65.66
55550;BME280;41397;49.972;18.944;2023-10-19T04:04:32;100874.84;;;8.81;65.67
55550;BME280;41397;49.972;18.944;2023-10-19T04:07:34;100864.83;;;8.81;65.66
55550;BME280;41397;49.972;18.944;2023-10-19T04:10:36;100847.38;;;8.84;65.77
55550;BME280;41397;49.972;18.944;2023-10-19T04:13:45;100842.56;;;8.87;65.83
55550;BME280;41397;49.972;18.944;2023-10-19T04:16:47;100844.51;;;8.85;66.01
55550;BME280;41397;49.972;18.944;2023-10-19T04:19:50;100831.64;;;8.87;65.92
55550;BME280;41397;49.972;18.944;2023-10-19T04:22:56;100816.15;;;8.88;65.89
55550;BME280;41397;49.972;18.944;2023-10-19T04:26:04;100818.88;;;8.88;65.72
55550;BME280;41397;49.972;18.944;2023-10-19T04:29:11;100813.32;;;8.89;66.25
55550;BME280;41397;49.972;18.944;2023-10-19T04:32:22;100804.14;;;8.91;66.38
55550;BME280;41397;49.972;18.944;2023-10-19T04:35:27;100804.14;;;8.91;66.47
55550;BME280;41397;49.972;18.944;2023-10-19T04:38:35;100797.92;;;8.88;66.75
55550;BME280;41397;49.972;18.944;2023-10-19T04:41:39;100797.12;;;8.99;66.56
55550;BME280;41397;49.972;18.944;2023-10-19T04:44:40;100786.84;;;9.03;66.86
55550;BME280;41397;49.972;18.944;2023-10-19T04:49:32;100777.93;;;9.01;67.11
55550;BME280;41397;49.972;18.944;2023-10-19T04:52:33;100784.39;;;9.11;66.52
55550;BME280;41397;49.972;18.944;2023-10-19T04:55:35;100789.75;;;9.13;66.84
55550;BME280;41397;49.972;18.944;2023-10-19T04:58:40;100784.30;;;9.13;67.07
55550;BME280;41397;49.972;18.944;2023-10-19T05:01:41;100787.41;;;9.19;67.22
55550;BME280;41397;49.972;18.944;2023-10-19T05:04:43;100769.32;;;9.18;67.28
55550;BME280;41397;49.972;18.944;2023-10-19T05:07:46;100775.02;;;9.15;67.43
55550;BME280;41397;49.972;18.944;2023-10-19T05:10:48;100764.72;;;9.19;67.59
55550;BME280;41397;49.972;18.944;2023-10-19T05:13:50;100765.88;;;9.27;67.25
55550;BME280;41397;49.972;18.944;2023-10-19T05:16:52;100758.92;;;9.23;67.57
55550;BME280;41397;49.972;18.944;2023-10-19T05:19:54;100766.76;;;9.28;67.83
55550;BME280;41397;49.972;18.944;2023-10-19T05:22:56;100765.00;;;9.27;67.82
55550;BME280;41397;49.972;18.944;2023-10-19T05:26:04;100757.85;;;9.37;67.67
55550;BME280;41397;49.972;18.944;2023-10-19T05:29:07;100755.04;;;9.39;67.64
55550;BME280;41397;49.972;18.944;2023-10-19T05:32:08;100758.61;;;9.39;67.91
55550;BME280;41397;49.972;18.944;2023-10-19T05:35:10;100765.70;;;9.42;67.73
55550;BME280;41397;49.972;18.944;2023-10-19T05:38:23;100751.41;;;9.38;67.79
55550;BME280;41397;49.972;18.944;2023-10-19T05:41:25;100754.54;;;9.45;67.79
55550;BME280;41397;49.972;18.944;2023-10-19T05:44:29;100751.81;;;9.45;67.93
55550;BME280;41397;49.972;18.944;2023-10-19T05:47:31;100755.51;;;9.44;68.22
55550;BME280;41397;49.972;18.944;2023-10-19T05:50:35;100747.22;;;9.45;68.10
55550;BME280;41397;49.972;18.944;2023-10-19T05:53:37;100739.55;;;9.50;67.83
55550;BME280;41397;49.972;18.944;2023-10-19T05:56:39;100736.40;;;9.44;68.48
55550;BME280;41397;49.972;18.944;2023-10-19T05:59:40;100734.08;;;9.50;68.24
55550;BME280;41397;49.972;18.944;2023-10-19T06:02:46;100732.98;;;9.53;68.35
55550;BME280;41397;49.972;18.944;2023-10-19T06:05:48;100735.56;;;9.54;68.16
55550;BME280;41397;49.972;18.944;2023-10-19T06:08:49;100729.24;;;9.54;68.49
55550;BME280;41397;49.972;18.944;2023-10-19T06:11:54;100733.57;;;9.45;69.01
55550;BME280;41397;49.972;18.944;2023-10-19T06:14:56;100722.02;;;9.42;68.93
55550;BME280;41397;49.972;18.944;2023-10-19T06:17:57;100716.95;;;9.48;68.99
55550;BME280;41397;49.972;18.944;2023-10-19T06:20:59;100724.44;;;9.58;68.21
55550;BME280;41397;49.972;18.944;2023-10-19T06:24:00;100715.10;;;9.60;68.72
55550;BME280;41397;49.972;18.944;2023-10-19T06:27:03;100712.25;;;9.50;69.36
55550;BME280;41397;49.972;18.944;2023-10-19T06:30:05;100709.16;;;9.55;69.03
55550;BME280;41397;49.972;18.944;2023-10-19T06:33:08;100709.11;;;9.44;69.52
55550;BME280;41397;49.972;18.944;2023-10-19T06:36:09;100706.89;;;9.49;70.00
55550;BME280;41397;49.972;18.944;2023-10-19T06:39:11;100704.03;;;9.39;70.08
55550;BME280;41397;49.972;18.944;2023-10-19T06:42:14;100686.56;;;9.53;69.64
55550;BME280;41397;49.972;18.944;2023-10-19T06:45:17;100688.29;;;9.54;70.04
55550;BME280;41397;49.972;18.944;2023-10-19T06:48:20;100680.48;;;9.49;70.23
55550;BME280;41397;49.972;18.944;2023-10-19T06:51:22;100673.28;;;9.60;69.83
55550;BME280;41397;49.972;18.944;2023-10-19T06:54:31;100669.19;;;9.54;69.89
55550;BME280;41397;49.972;18.944;2023-10-19T06:57:33;100672.05;;;9.52;70.50
55550;BME280;41397;49.972;18.944;2023-10-19T07:00:34;100674.90;;;9.62;70.10
55550;BME280;41397;49.972;18.944;2023-10-19T07:03:42;100660.28;;;9.63;70.03
55550;BME280;41397;49.972;18.944;2023-10-19T07:06:43;100647.48;;;9.64;69.88
55550;BME280;41397;49.972;18.944;2023-10-19T07:09:48;100641.89;;;9.76;69.55
55550;BME280;41397;49.972;18.944;2023-10-19T07:12:54;100639.05;;;9.89;69.36
55550;BME280;41397;49.972;18.944;2023-10-19T07:15:56;100622.05;;;9.86;69.34
55550;BME280;41397;49.972;18.944;2023-10-19T07:18:58;100625.38;;;9.89;69.33
55550;BME280;41397;49.972;18.944;2023-10-19T07:22:05;100636.19;;;10.02;69.01
55550;BME280;41397;49.972;18.944;2023-10-19T07:25:10;100626.09;;;10.14;68.53
55550;BME280;41397;49.972;18.944;2023-10-19T07:28:17;100616.29;;;10.11;68.71
55550;BME280;41397;49.972;18.944;2023-10-19T07:31:18;100603.27;;;10.15;68.44
55550;BME280;41397;49.972;18.944;2023-10-19T07:34:19;100604.10;;;10.27;68.46
55550;BME280;41397;49.972;18.944;2023-10-19T07:37:31;100606.23;;;10.34;68.46
55550;BME280;41397;49.972;18.944;2023-10-19T07:40:33;100596.64;;;10.40;68.22
55550;BME280;41397;49.972;18.944;2023-10-19T07:43:36;100600.57;;;10.47;68.14
55550;BME280;41397;49.972;18.944;2023-10-19T07:46:37;100589.63;;;10.47;68.05
55550;BME280;41397;49.972;18.944;2023-10-19T07:49:40;100586.91;;;10.47;68.26
55550;BME280;41397;49.972;18.944;2023-10-19T07:52:42;100594.89;;;10.39;68.44
55550;BME280;41397;49.972;18.944;2023-10-19T07:55:49;100586.95;;;10.36;68.64
55550;BME280;41397;49.972;18.944;2023-10-19T07:58:51;100579.84;;;10.44;68.47
55550;BME280;41397;49.972;18.944;2023-10-19T08:01:52;100588.24;;;10.53;68.24
55550;BME280;41397;49.972;18.944;2023-10-19T08:04:54;100582.18;;;10.49;68.46
55550;BME280;41397;49.972;18.944;2023-10-19T08:07:56;100587.59;;;10.60;68.26
55550;BME280;41397;49.972;18.944;2023-10-19T08:11:01;100592.59;;;10.55;68.06
55550;BME280;41397;49.972;18.944;2023-10-19T08:14:02;100599.40;;;10.61;67.90
55550;BME280;41397;49.972;18.944;2023-10-19T08:17:04;100586.47;;;10.63;67.95
55550;BME280;41397;49.972;18.944;2023-10-19T08:20:09;100585.23;;;10.67;67.85
55550;BME280;41397;49.972;18.944;2023-10-19T08:23:22;100582.76;;;10.64;67.96
55550;BME280;41397;49.972;18.944;2023-10-19T08:26:28;100567.01;;;10.56;68.33
55550;BME280;41397;49.972;18.944;2023-10-19T08:29:31;100567.59;;;10.60;68.18
55550;BME280;41397;49.972;18.944;2023-10-19T08:32:32;100579.49;;;10.70;68.01
55550;BME280;41397;49.972;18.944;2023-10-19T08:35:34;100572.89;;;10.73;67.95
55550;BME280;41397;49.972;18.944;2023-10-19T08:38:36;100569.63;;;10.79;67.56
55550;BME280;41397;49.972;18.944;2023-10-19T08:41:39;100568.34;;;10.83;67.69
55550;BME280;41397;49.972;18.944;2023-10-19T08:44:42;100563.29;;;10.78;67.65
55550;BME280;41397;49.972;18.944;2023-10-19T08:47:51;100556.15;;;10.87;67.85
55550;BME280;41397;49.972;18.944;2023-10-19T08:50:57;100542.48;;;10.87;67.45
55550;BME280;41397;49.972;18.944;2023-10-19T08:54:00;100551.27;;;10.91;68.11
55550;BME280;41397;49.972;18.944;2023-10-19T08:57:02;100547.01;;;10.98;68.06
55550;BME280;41397;49.972;18.944;2023-10-19T09:00:05;100543.13;;;11.00;67.86
55550;BME280;41397;49.972;18.944;2023-10-19T09:03:08;100541.18;;;10.91;67.91
55550;BME280;41397;49.972;18.944;2023-10-19T09:06:12;100539.62;;;10.88;68.17
55550;BME280;41397;49.972;18.944;2023-10-19T09:09:15;100542.48;;;10.87;68.14
55550;BME280;41397;49.972;18.944;2023-10-19T09:12:25;100535.51;;;10.83;68.12
55550;BME280;41397;49.972;18.944;2023-10-19T09:15:28;100534.18;;;10.77;68.57
55550;BME280;41397;49.972;18.944;2023-10-19T09:18:35;100536.05;;;10.77;68.96
55550;BME280;41397;49.972;18.944;2023-10-19T09:21:37;100525.04;;;10.88;68.89
55550;BME280;41397;49.972;18.944;2023-10-19T09:24:40;100528.40;;;10.92;68.37
55550;BME280;41397;49.972;18.944;2023-10-19T09:27:43;100532.31;;;10.99;67.97
55550;BME280;41397;49.972;18.944;2023-10-19T09:30:46;100530.20;;;11.02;68.14
55550;BME280;41397;49.972;18.944;2023-10-19T09:33:48;100524.18;;;11.08;67.84
55550;BME280;41397;49.972;18.944;2023-10-19T09:36:56;100518.43;;;11.11;67.23
55550;BME280;41397;49.972;18.944;2023-10-19T09:39:59;100526.24;;;11.16;67.14
55550;BME280;41397;49.972;18.944;2023-10-19T09:43:06;100525.69;;;11.22;66.79
55550;BME280;41397;49.972;18.944;2023-10-19T09:46:11;100536.09;;;11.28;66.74
55550;BME280;41397;49.972;18.944;2023-10-19T09:49:16;100538.79;;;11.19;66.28
55550;BME280;41397;49.972;18.944;2023-10-19T09:52:19;100532.02;;;11.23;66.66
55550;BME280;41397;49.972;18.944;2023-10-19T09:55:32;100532.09;;;11.32;66.40
55550;BME280;41397;49.972;18.944;2023-10-19T09:58:45;100528.34;;;11.33;66.41
55550;BME280;41397;49.972;18.944;2023-10-19T10:04:59;100502.73;;;11.44;66.51
55550;BME280;41397;49.972;18.944;2023-10-19T10:11:18;100495.83;;;11.50;67.31
55550;BME280;41397;49.972;18.944;2023-10-19T10:14:22;100495.27;;;11.56;67.51
55550;BME280;41397;49.972;18.944;2023-10-19T10:17:25;100490.39;;;11.60;67.53
55550;BME280;41397;49.972;18.944;2023-10-19T10:20:30;100486.65;;;11.61;67.38
55550;BME280;41397;49.972;18.944;2023-10-19T10:23:32;100474.26;;;11.66;67.31
55550;BME280;41397;49.972;18.944;2023-10-19T10:29:59;100444.99;;;11.67;67.97
55550;BME280;41397;49.972;18.944;2023-10-19T10:33:07;100436.48;;;11.60;68.42
55550;BME280;41397;49.972;18.944;2023-10-19T10:36:15;100428.39;;;11.59;68.69
55550;BME280;41397;49.972;18.944;2023-10-19T10:39:19;100430.72;;;11.63;69.16
55550;BME280;41397;49.972;18.944;2023-10-19T10:42:25;100428.72;;;11.65;69.73
55550;BME280;41397;49.972;18.944;2023-10-19T10:45:30;100415.59;;;11.69;70.00
55550;BME280;41397;49.972;18.944;2023-10-19T10:48:32;100411.99;;;11.68;70.39
55550;BME280;41397;49.972;18.944;2023-10-19T10:51:33;100393.54;;;11.70;70.26
55550;BME280;41397;49.972;18.944;2023-10-19T10:54:35;100393.84;;;11.77;70.77
55550;BME280;41397;49.972;18.944;2023-10-19T10:57:37;100376.25;;;11.80;70.85
55550;BME280;41397;49.972;18.944;2023-10-19T11:00:43;100379.42;;;11.85;71.04
55550;BME280;41397;49.972;18.944;2023-10-19T11:03:47;100379.00;;;11.89;71.48
55550;BME280;41397;49.972;18.944;2023-10-19T11:06:51;100366.59;;;11.85;72.01
55550;BME280;41397;49.972;18.944;2023-10-19T11:09:53;100350.05;;;11.87;71.77
55550;BME280;41397;49.972;18.944;2023-10-19T11:13:02;100358.27;;;11.87;72.60
55550;BME280;41397;49.972;18.944;2023-10-19T11:16:07;100350.15;;;11.85;72.68
55550;BME280;41397;49.972;18.944;2023-10-19T11:19:08;100343.80;;;11.85;72.96
55550;BME280;41397;49.972;18.944;2023-10-19T11:22:10;100337.91;;;11.89;72.81
55550;BME280;41397;49.972;18.944;2023-10-19T11:25:22;100334.90;;;11.92;73.68
55550;BME280;41397;49.972;18.944;2023-10-19T11:28:25;100334.45;;;11.97;73.82
55550;BME280;41397;49.972;18.944;2023-10-19T11:31:33;100319.16;;;11.94;73.74
55550;BME280;41397;49.972;18.944;2023-10-19T11:34:41;100328.66;;;12.00;73.37
55550;BME280;41397;49.972;18.944;2023-10-19T11:37:51;100316.55;;;12.03;74.06
55550;BME280;41397;49.972;18.944;2023-10-19T11:40:56;100325.20;;;12.08;74.53
55550;BME280;41397;49.972;18.944;2023-10-19T11:43:58;100314.66;;;12.13;74.20
55550;BME280;41397;49.972;18.944;2023-10-19T11:47:01;100306.02;;;12.08;74.96
55550;BME280;41397;49.972;18.944;2023-10-19T11:50:04;100313.51;;;12.15;75.51
55550;BME280;41397;49.972;18.944;2023-10-19T11:53:05;100310.63;;;12.17;75.37
55550;BME280;41397;49.972;18.944;2023-10-19T11:56:08;100316.81;;;12.19;75.41
55550;BME280;41397;49.972;18.944;2023-10-19T11:59:10;100317.96;;;12.16;76.46
55550;BME280;41397;49.972;18.944;2023-10-19T12:02:13;100318.27;;;12.13;76.64
55550;BME280;41397;49.972;18.944;2023-10-19T12:05:19;100316.81;;;12.19;76.34
55550;BME280;41397;49.972;18.944;2023-10-19T12:08:21;100306.73;;;12.19;76.39
55550;BME280;41397;49.972;18.944;2023-10-19T12:11:23;100301.94;;;12.21;76.80
55550;BME280;41397;49.972;18.944;2023-10-19T12:14:25;100295.47;;;12.23;76.80
55550;BME280;41397;49.972;18.944;2023-10-19T12:17:26;100303.39;;;12.26;77.11
55550;BME280;41397;49.972;18.944;2023-10-19T12:20:29;100288.83;;;12.25;77.84
55550;BME280;41397;49.972;18.944;2023-10-19T12:23:36;100278.29;;;12.20;78.03
55550;BME280;41397;49.972;18.944;2023-10-19T12:26:42;100288.53;;;12.18;78.18
55550;BME280;41397;49.972;18.944;2023-10-19T12:29:44;100284.21;;;12.16;78.52
55550;BME280;41397;49.972;18.944;2023-10-19T12:32:45;100274.99;;;12.17;78.40
55550;BME280;41397;49.972;18.944;2023-10-19T12:35:50;100273.84;;;12.19;78.60
55550;BME280;41397;49.972;18.944;2023-10-19T12:39:01;100269.52;;;12.17;79.21
55550;BME280;41397;49.972;18.944;2023-10-19T12:42:09;100281.60;;;12.24;78.69
55550;BME280;41397;49.972;18.944;2023-10-19T12:45:10;100277.44;;;12.20;79.28
55550;BME280;41397;49.972;18.944;2023-10-19T12:48:12;100280.01;;;12.21;79.03
55550;BME280;41397;49.972;18.944;2023-10-19T12:51:13;100280.59;;;12.25;79.11
55550;BME280;41397;49.972;18.944;2023-10-19T12:54:17;100272.20;;;12.27;79.54
55550;BME280;41397;49.972;18.944;2023-10-19T12:57:19;100278.25;;;12.30;80.02
55550;BME280;41397;49.972;18.944;2023-10-19T13:00:21;100279.83;;;12.33;79.98
55550;BME280;41397;49.972;18.944;2023-10-19T13:03:26;100266.59;;;12.28;80.16
55550;BME280;41397;49.972;18.944;2023-10-19T13:06:33;100270.61;;;12.34;80.25
55550;BME280;41397;49.972;18.944;2023-10-19T13:09:36;100258.48;;;12.36;80.30
55550;BME280;41397;49.972;18.944;2023-10-19T13:12:38;100253.14;;;12.35;80.41
55550;BME280;41397;49.972;18.944;2023-10-19T13:15:40;100254.70;;;12.37;80.18
55550;BME280;41397;49.972;18.944;2023-10-19T13:18:42;100245.77;;;12.35;80.05
55550;BME280;41397;49.972;18.944;2023-10-19T13:21:44;100236.68;;;12.35;80.70
55550;BME280;41397;49.972;18.944;2023-10-19T13:24:46;100229.92;;;12.29;80.94
55550;BME280;41397;49.972;18.944;2023-10-19T13:27:47;100222.55;;;12.30;81.15
55550;BME280;41397;49.972;18.944;2023-10-19T13:30:51;100228.21;;;12.28;81.10
55550;BME280;41397;49.972;18.944;2023-10-19T13:33:54;100209.88;;;12.29;81.35
55550;BME280;41397;49.972;18.944;2023-10-19T13:36:55;100219.98;;;12.28;81.35
55550;BME280;41397;49.972;18.944;2023-10-19T13:39:58;100213.64;;;12.28;81.75
55550;BME280;41397;49.972;18.944;2023-10-19T13:43:01;100211.48;;;12.21;82.30
55550;BME280;41397;49.972;18.944;2023-10-19T13:46:02;100212.20;;;12.24;82.50
55550;BME280;41397;49.972;18.944;2023-10-19T13:49:05;100205.14;;;12.21;82.96
55550;BME280;41397;49.972;18.944;2023-10-19T13:52:07;100207.33;;;12.17;82.94
55550;BME280;41397;49.972;18.944;2023-10-19T13:55:12;100187.97;;;12.19;82.97
55550;BME280;41397;49.972;18.944;2023-10-19T13:58:20;100193.93;;;12.14;83.12
55550;BME280;41397;49.972;18.944;2023-10-19T14:01:24;100177.59;;;12.23;82.75
55550;BME280;41397;49.972;18.944;2023-10-19T14:04:28;100189.13;;;12.16;83.29
55550;BME280;41397;49.972;18.944;2023-10-19T14:07:29;100172.79;;;12.25;83.12
55550;BME280;41397;49.972;18.944;2023-10-19T14:10:34;100171.94;;;12.24;83.21
55550;BME280;41397;49.972;18.944;2023-10-19T14:13:36;100157.52;;;12.22;83.36
55550;BME280;41397;49.972;18.944;2023-10-19T14:16:37;100150.00;;;12.24;83.25
55550;BME280;41397;49.972;18.944;2023-10-19T14:19:40;100147.98;;;12.26;82.81
55550;BME280;41397;49.972;18.944;2023-10-19T14:22:49;100138.73;;;12.27;82.52
55550;BME280;41397;49.972;18.944;2023-10-19T14:25:54;100149.01;;;12.25;82.37
55550;BME280;41397;49.972;18.944;2023-10-19T14:28:56;100145.10;;;12.28;82.12
55550;BME280;41397;49.972;18.944;2023-10-19T14:31:57;100139.21;;;12.23;82.02
55550;BME280;41397;49.972;18.944;2023-10-19T14:34:59;100147.84;;;12.28;82.03
55550;BME280;41397;49.972;18.944;2023-10-19T14:38:02;100158.64;;;12.29;81.90
55550;BME280;41397;49.972;18.944;2023-10-19T14:41:04;100169.88;;;12.36;81.53
55550;BME280;41397;49.972;18.944;2023-10-19T14:44:06;100165.94;;;12.38;81.04
55550;BME280;41397;49.972;18.944;2023-10-19T14:47:08;100157.02;;;12.36;81.13
55550;BME280;41397;49.972;18.944;2023-10-19T14:50:11;100162.52;;;12.36;81.12
55550;BME280;41397;49.972;18.944;2023-10-19T14:53:14;100150.92;;;12.42;81.01
55550;BME280;41397;49.972;18.944;2023-10-19T14:56:15;100163.20;;;12.38;80.96
55550;BME280;41397;49.972;18.944;2023-10-19T14:59:17;100166.52;;;12.42;80.95
55550;BME280;41397;49.972;18.944;2023-10-19T15:02:19;100157.27;;;12.43;80.49
55550;BME280;41397;49.972;18.944;2023-10-19T15:05:24;100141.37;;;12.47;80.80
55550;BME280;41397;49.972;18.944;2023-10-19T15:08:27;100137.63;;;12.48;81.05
55550;BME280;41397;49.972;18.944;2023-10-19T15:11:33;100136.28;;;12.52;81.07
55550;BME280;41397;49.972;18.944;2023-10-19T15:14:34;100139.19;;;12.50;80.61
55550;BME280;41397;49.972;18.944;2023-10-19T15:17:39;100130.11;;;12.50;80.71
55550;BME280;41397;49.972;18.944;2023-10-19T15:20:40;100138.33;;;12.50;80.64
55550;BME280;41397;49.972;18.944;2023-10-19T15:23:42;100140.36;;;12.48;80.71
55550;BME280;41397;49.972;18.944;2023-10-19T15:26:44;100140.36;;;12.48;80.90
55550;BME280;41397;49.972;18.944;2023-10-19T15:29:45;100138.48;;;12.48;80.91
55550;BME280;41397;49.972;18.944;2023-10-19T15:32:48;100137.77;;;12.46;80.96
55550;BME280;41397;49.972;18.944;2023-10-19T15:35:50;100138.07;;;12.43;81.13
55550;BME280;41397;49.972;18.944;2023-10-19T15:38:52;100140.66;;;12.44;81.04
55550;BME280;41397;49.972;18.944;2023-10-19T15:41:53;100139.66;;;12.46;80.94
55550;BME280;41397;49.972;18.944;2023-10-19T15:44:55;100134.02;;;12.47;80.79
55550;BME280;41397;49.972;18.944;2023-10-19T15:47:57;100126.65;;;12.48;80.81
55550;BME280;41397;49.972;18.944;2023-10-19T15:51:01;100139.33;;;12.49;80.84
55550;BME280;41397;49.972;18.944;2023-10-19T15:54:04;100138.62;;;12.47;81.04
55550;BME280;41397;49.972;18.944;2023-10-19T15:57:06;100137.93;;;12.44;81.53
55550;BME280;41397;49.972;18.944;2023-10-19T16:00:10;100140.81;;;12.43;81.81
55550;BME280;41397;49.972;18.944;2023-10-19T16:03:15;100136.18;;;12.43;81.37
55550;BME280;41397;49.972;18.944;2023-10-19T16:06:21;100126.70;;;12.38;81.90
55550;BME280;41397;49.972;18.944;2023-10-19T16:09:22;100124.13;;;12.36;81.64
55550;BME280;41397;49.972;18.944;2023-10-19T16:12:25;100131.02;;;12.40;81.61